Time,TemperatureF,DewpointF,PressureIn,WindDirection,WindDirectionDegrees,WindSpeedMPH,WindSpeedGustMPH,Humidity,HourlyPrecipIn,Conditions,Clouds,dailyrainin,SolarRadiationWatts/m^2,SoftwareType,DateUTC
2013-12-14 00:12:00,14.0,11.0,-100.00,SSW,206,2.0,11.0,86,0.00,,,0.00,0.000000,,2013-12-14 07:12:00,
2013-12-14 00:22:00,14.0,11.0,-100.00,SSW,206,2.0,11.0,86,0.00,,,0.00,0.000000,,2013-12-14 07:22:00,
2013-12-14 00:32:00,14.0,11.0,-100.00,SSW,206,2.0,11.0,86,0.00,,,0.00,0.000000,,2013-12-14 07:32:00,
2013-12-14 01:11:00,14.0,10.0,-100.00,SW,232,4.0,11.0,85,0.00,,,0.00,0.000000,,2013-12-14 08:11:00,
2013-12-14 01:22:00,14.0,10.0,-100.00,SW,232,4.0,11.0,85,0.00,,,0.00,0.000000,,2013-12-14 08:22:00,
2013-12-14 01:32:00,14.0,10.0,-100.00,SW,232,4.0,11.0,85,0.00,,,0.00,0.000000,,2013-12-14 08:32:00,
2013-12-14 02:12:00,13.0,10.0,-100.00,SW,231,4.0,9.0,86,0.00,,,0.00,0.000000,,2013-12-14 09:12:00,
2013-12-14 02:22:00,13.0,10.0,-100.00,SW,231,4.0,9.0,86,0.00,,,0.00,0.000000,,2013-12-14 09:22:00,
2013-12-14 02:33:00,13.0,10.0,-100.00,SW,231,4.0,9.0,86,0.00,,,0.00,0.000000,,2013-12-14 09:33:00,
2013-12-14 03:12:00,13.0,10.0,-100.00,North,-999,0.0,8.0,86,0.00,,,0.00,0.000000,,2013-12-14 10:12:00,
2013-12-14 03:23:00,13.0,10.0,-100.00,North,-999,0.0,8.0,86,0.00,,,0.00,0.000000,,2013-12-14 10:23:00,
2013-12-14 03:33:00,13.0,10.0,-100.00,North,-999,0.0,8.0,86,0.00,,,0.00,0.000000,,2013-12-14 10:33:00,
2013-12-14 04:11:00,13.0,10.0,-100.00,SE,144,1.0,3.0,88,0.00,,,0.00,0.000000,,2013-12-14 11:11:00,
2013-12-14 04:22:00,13.0,10.0,-100.00,SE,144,1.0,3.0,88,0.00,,,0.00,0.000000,,2013-12-14 11:22:00,
2013-12-14 04:33:00,13.0,10.0,-100.00,SE,144,1.0,3.0,88,0.00,,,0.00,0.000000,,2013-12-14 11:33:00,
2013-12-14 05:12:00,14.0,11.0,-100.00,North,-999,0.0,4.0,88,0.00,,,0.00,0.000000,,2013-12-14 12:12:00,
2013-12-14 05:22:00,14.0,11.0,-100.00,North,-999,0.0,4.0,88,0.00,,,0.00,0.000000,,2013-12-14 12:22:00,
2013-12-14 05:32:00,14.0,11.0,-100.00,North,-999,0.0,4.0,88,0.00,,,0.00,0.000000,,2013-12-14 12:32:00,
2013-12-14 06:11:00,14.0,11.0,-100.00,North,-999,0.0,2.0,89,0.00,,,0.00,0.000000,,2013-12-14 13:11:00,
2013-12-14 06:22:00,14.0,11.0,-100.00,North,-999,0.0,2.0,89,0.00,,,0.00,0.000000,,2013-12-14 13:22:00,
2013-12-14 06:32:00,14.0,11.0,-100.00,North,-999,0.0,2.0,89,0.00,,,0.00,0.000000,,2013-12-14 13:32:00,
2013-12-14 07:11:00,16.0,15.0,-100.00,SW,230,2.0,6.0,94,0.00,,,0.00,0.000000,,2013-12-14 14:11:00,
2013-12-14 07:22:00,16.0,15.0,-100.00,SW,230,2.0,6.0,94,0.00,,,0.00,0.000000,,2013-12-14 14:22:00,
2013-12-14 07:32:00,16.0,15.0,-100.00,SW,230,2.0,6.0,94,0.00,,,0.00,0.000000,,2013-12-14 14:32:00,
2013-12-14 08:11:00,16.0,14.0,-100.00,SW,216,3.0,7.0,93,0.00,,,0.00,0.000000,,2013-12-14 15:11:00,
2013-12-14 08:22:00,16.0,14.0,-100.00,SW,216,3.0,7.0,93,0.00,,,0.00,0.000000,,2013-12-14 15:22:00,
2013-12-14 08:33:00,16.0,14.0,-100.00,SW,216,3.0,7.0,93,0.00,,,0.00,0.000000,,2013-12-14 15:33:00,
2013-12-14 09:13:00,17.0,15.0,-100.00,SSW,212,3.0,8.0,92,0.00,,,0.00,0.000000,,2013-12-14 16:13:00,
2013-12-14 09:23:00,17.0,15.0,-100.00,SSW,212,3.0,8.0,92,0.00,,,0.00,0.000000,,2013-12-14 16:23:00,
2013-12-14 09:33:00,17.0,15.0,-100.00,SSW,212,3.0,8.0,92,0.00,,,0.00,0.000000,,2013-12-14 16:33:00,
2013-12-14 10:12:00,18.0,16.0,-100.00,WSW,237,3.0,9.0,90,0.00,,,0.00,2.000000,,2013-12-14 17:12:00,
2013-12-14 10:22:00,18.0,16.0,-100.00,WSW,237,3.0,9.0,90,0.00,,,0.00,2.000000,,2013-12-14 17:22:00,
2013-12-14 10:33:00,18.0,16.0,-100.00,WSW,237,3.0,9.0,90,0.00,,,0.00,2.000000,,2013-12-14 17:33:00,
2013-12-14 11:11:00,19.0,16.0,-100.00,SW,223,4.0,13.0,89,0.00,,,0.00,6.000000,,2013-12-14 18:11:00,
2013-12-14 11:22:00,19.0,16.0,-100.00,SW,223,4.0,13.0,89,0.00,,,0.00,6.000000,,2013-12-14 18:22:00,
2013-12-14 11:32:00,19.0,16.0,-100.00,SW,223,4.0,13.0,89,0.00,,,0.00,6.000000,,2013-12-14 18:32:00,
2013-12-14 12:12:00,20.0,17.0,-100.00,SW,229,3.0,11.0,89,0.00,,,0.00,7.000000,,2013-12-14 19:12:00,
2013-12-14 12:21:00,20.0,17.0,-100.00,SW,229,3.0,11.0,89,0.00,,,0.00,7.000000,,2013-12-14 19:21:00,
2013-12-14 12:32:00,20.0,17.0,-100.00,SW,229,3.0,11.0,89,0.00,,,0.00,7.000000,,2013-12-14 19:32:00,
2013-12-14 13:11:00,20.0,18.0,-100.00,SW,224,4.0,12.0,90,0.00,,,-99.99,7.000000,,2013-12-14 20:11:00,
2013-12-14 13:22:00,20.0,18.0,-100.00,SW,224,4.0,12.0,90,0.00,,,-99.99,7.000000,,2013-12-14 20:22:00,
2013-12-14 13:32:00,20.0,18.0,-100.00,SW,224,4.0,12.0,90,0.00,,,-99.99,7.000000,,2013-12-14 20:32:00,
2013-12-14 14:11:00,20.0,18.0,-100.00,SW,224,5.0,10.0,91,0.00,,,0.00,3.000000,,2013-12-14 21:11:00,
2013-12-14 14:22:00,20.0,18.0,-100.00,SW,224,5.0,10.0,91,0.00,,,0.00,3.000000,,2013-12-14 21:22:00,
2013-12-14 14:34:00,20.0,18.0,-100.00,SW,224,5.0,10.0,91,0.00,,,0.00,3.000000,,2013-12-14 21:34:00,
2013-12-14 15:13:00,21.0,19.0,-100.00,SW,234,4.0,11.0,92,0.00,,,0.00,1.000000,,2013-12-14 22:13:00,
2013-12-14 15:23:00,21.0,19.0,-100.00,SW,234,4.0,11.0,92,0.00,,,0.00,1.000000,,2013-12-14 22:23:00,
2013-12-14 15:33:00,21.0,19.0,-100.00,SW,234,4.0,11.0,92,0.00,,,0.00,1.000000,,2013-12-14 22:33:00,
2013-12-14 16:12:00,20.0,18.0,-100.00,SW,228,4.0,8.0,93,0.00,,,0.00,1.000000,,2013-12-14 23:12:00,
2013-12-14 16:22:00,20.0,18.0,-100.00,SW,228,4.0,8.0,93,0.00,,,0.00,1.000000,,2013-12-14 23:22:00,
2013-12-14 16:33:00,20.0,18.0,-100.00,SW,228,4.0,8.0,93,0.00,,,0.00,1.000000,,2013-12-14 23:33:00,
2013-12-14 17:11:00,20.0,19.0,-100.00,SW,215,4.0,10.0,96,0.00,,,0.00,0.000000,,2013-12-15 00:11:00,
2013-12-14 17:22:00,20.0,19.0,-100.00,SW,215,4.0,10.0,96,0.00,,,0.00,0.000000,,2013-12-15 00:22:00,
2013-12-14 17:32:00,20.0,19.0,-100.00,SW,215,4.0,10.0,96,0.00,,,0.00,0.000000,,2013-12-15 00:32:00,
2013-12-14 18:11:00,20.0,19.0,-100.00,SW,225,3.0,10.0,95,0.00,,,0.00,0.000000,,2013-12-15 01:11:00,
2013-12-14 18:21:00,20.0,19.0,-100.00,SW,225,3.0,10.0,95,0.00,,,0.00,0.000000,,2013-12-15 01:21:00,
2013-12-14 18:32:00,20.0,19.0,-100.00,SW,225,3.0,10.0,95,0.00,,,0.00,0.000000,,2013-12-15 01:32:00,
2013-12-14 19:11:00,20.0,19.0,-100.00,SW,220,2.0,13.0,95,0.00,,,0.00,0.000000,,2013-12-15 02:11:00,
2013-12-14 19:22:00,20.0,19.0,-100.00,SW,220,2.0,13.0,95,0.00,,,0.00,0.000000,,2013-12-15 02:22:00,
2013-12-14 19:32:00,20.0,19.0,-100.00,SW,220,2.0,13.0,95,0.00,,,0.00,0.000000,,2013-12-15 02:32:00,
2013-12-14 20:12:00,20.0,19.0,-100.00,SW,221,4.0,11.0,95,0.00,,,0.00,0.000000,,2013-12-15 03:12:00,
2013-12-14 20:22:00,20.0,19.0,-100.00,SW,221,4.0,11.0,95,0.00,,,0.00,0.000000,,2013-12-15 03:22:00,
2013-12-14 20:33:00,20.0,19.0,-100.00,SW,221,4.0,11.0,95,0.00,,,0.00,0.000000,,2013-12-15 03:33:00,
2013-12-14 21:02:00,-999.0,-99.9,-100.00,SW,222,5.0,12.0,-999,0.00,,,0.00,0.000000,,2013-12-15 04:02:00,
2013-12-14 21:13:00,20.0,19.0,-100.00,SW,222,5.0,12.0,95,0.00,,,0.00,0.000000,,2013-12-15 04:13:00,
2013-12-14 21:23:00,20.0,19.0,-100.00,SW,222,5.0,12.0,95,0.00,,,0.00,0.000000,,2013-12-15 04:23:00,
2013-12-14 21:33:00,20.0,19.0,-100.00,SW,222,5.0,12.0,95,0.00,,,0.00,0.000000,,2013-12-15 04:33:00,
2013-12-14 22:12:00,20.0,19.0,-100.00,SW,228,4.0,10.0,94,0.00,,,0.00,0.000000,,2013-12-15 05:12:00,
2013-12-14 22:22:00,20.0,19.0,-100.00,SW,228,4.0,10.0,94,0.00,,,0.00,0.000000,,2013-12-15 05:22:00,
2013-12-14 22:33:00,20.0,19.0,-100.00,SW,228,4.0,10.0,94,0.00,,,0.00,0.000000,,2013-12-15 05:33:00,
2013-12-14 23:12:00,20.0,19.0,-100.00,SW,230,5.0,11.0,95,0.00,,,0.00,0.000000,,2013-12-15 06:12:00,
2013-12-14 23:22:00,20.0,19.0,-100.00,SW,230,5.0,11.0,95,0.00,,,0.00,0.000000,,2013-12-15 06:22:00,
2013-12-14 23:31:00,20.0,19.0,-100.00,SW,230,5.0,11.0,95,0.00,,,0.00,0.000000,,2013-12-15 06:31:00,